sensor_id;sensor_type;location;lat;lon;timestamp;P1;durP1;ratioP1;P2;durP2;ratioP2
54823;SDS011;40724;53.196;5.980;2022-10-31T00:03:41;10.52;;;8.10;;
54823;SDS011;40724;53.196;5.980;2022-10-31T00:06:07;18.92;;;9.77;;
54823;SDS011;40724;53.196;5.980;2022-10-31T00:08:33;14.95;;;8.15;;
54823;SDS011;40724;53.196;5.980;2022-10-31T00:10:59;10.90;;;7.88;;
54823;SDS011;40724;53.196;5.980;2022-10-31T00:13:26;12.32;;;9.02;;
54823;SDS011;40724;53.196;5.980;2022-10-31T00:15:52;12.43;;;7.82;;
54823;SDS011;40724;53.196;5.980;2022-10-31T00:18:18;12.40;;;8.23;;
54823;SDS011;40724;53.196;5.980;2022-10-31T00:20:44;15.48;;;9.98;;
54823;SDS011;40724;53.196;5.980;2022-10-31T00:23:10;13.70;;;8.43;;
54823;SDS011;40724;53.196;5.980;2022-10-31T00:25:37;15.38;;;9.85;;
54823;SDS011;40724;53.196;5.980;2022-10-31T00:28:05;13.77;;;8.35;;
54823;SDS011;40724;53.196;5.980;2022-10-31T00:30:31;15.25;;;9.80;;
54823;SDS011;40724;53.196;5.980;2022-10-31T00:32:57;17.38;;;10.02;;
54823;SDS011;40724;53.196;5.980;2022-10-31T00:35:23;13.18;;;9.18;;
54823;SDS011;40724;53.196;5.980;2022-10-31T00:37:50;15.45;;;9.80;;
54823;SDS011;40724;53.196;5.980;2022-10-31T00:40:16;14.77;;;9.35;;
54823;SDS011;40724;53.196;5.980;2022-10-31T00:42:42;15.07;;;9.80;;
54823;SDS011;40724;53.196;5.980;2022-10-31T00:45:09;15.50;;;9.75;;
54823;SDS011;40724;53.196;5.980;2022-10-31T00:47:35;11.60;;;9.20;;
54823;SDS011;40724;53.196;5.980;2022-10-31T00:50:02;22.58;;;10.27;;
54823;SDS011;40724;53.196;5.980;2022-10-31T00:52:28;15.63;;;10.40;;
54823;SDS011;40724;53.196;5.980;2022-10-31T00:54:54;14.13;;;8.88;;
54823;SDS011;40724;53.196;5.980;2022-10-31T00:57:20;16.50;;;10.10;;
54823;SDS011;40724;53.196;5.980;2022-10-31T00:59:46;19.38;;;10.57;;
54823;SDS011;40724;53.196;5.980;2022-10-31T01:02:12;18.60;;;10.32;;
54823;SDS011;40724;53.196;5.980;2022-10-31T01:04:38;14.10;;;9.65;;
54823;SDS011;40724;53.196;5.980;2022-10-31T01:07:04;17.15;;;9.90;;
54823;SDS011;40724;53.196;5.980;2022-10-31T01:09:30;17.67;;;9.77;;
54823;SDS011;40724;53.196;5.980;2022-10-31T01:11:57;20.60;;;12.00;;
54823;SDS011;40724;53.196;5.980;2022-10-31T01:14:23;15.88;;;10.40;;
54823;SDS011;40724;53.196;5.980;2022-10-31T01:16:49;20.42;;;10.52;;
54823;SDS011;40724;53.196;5.980;2022-10-31T01:19:15;14.20;;;10.23;;
54823;SDS011;40724;53.196;5.980;2022-10-31T01:21:41;13.20;;;9.73;;
54823;SDS011;40724;53.196;5.980;2022-10-31T01:24:07;17.58;;;10.30;;
54823;SDS011;40724;53.196;5.980;2022-10-31T01:26:34;17.63;;;10.02;;
54823;SDS011;40724;53.196;5.980;2022-10-31T01:29:01;12.15;;;9.88;;
54823;SDS011;40724;53.196;5.980;2022-10-31T01:31:29;16.33;;;9.80;;
54823;SDS011;40724;53.196;5.980;2022-10-31T01:33:55;11.30;;;9.23;;
54823;SDS011;40724;53.196;5.980;2022-10-31T01:36:25;12.00;;;8.75;;
54823;SDS011;40724;53.196;5.980;2022-10-31T01:38:52;15.93;;;8.48;;
54823;SDS011;40724;53.196;5.980;2022-10-31T01:41:20;14.85;;;9.75;;
54823;SDS011;40724;53.196;5.980;2022-10-31T01:43:54;14.07;;;9.88;;
54823;SDS011;40724;53.196;5.980;2022-10-31T01:46:31;14.80;;;9.75;;
54823;SDS011;40724;53.196;5.980;2022-10-31T01:48:59;12.35;;;8.77;;
54823;SDS011;40724;53.196;5.980;2022-10-31T01:51:27;13.48;;;8.90;;
54823;SDS011;40724;53.196;5.980;2022-10-31T01:53:55;14.07;;;8.82;;
54823;SDS011;40724;53.196;5.980;2022-10-31T01:56:23;13.27;;;9.25;;
54823;SDS011;40724;53.196;5.980;2022-10-31T01:58:50;15.38;;;9.00;;
54823;SDS011;40724;53.196;5.980;2022-10-31T02:01:17;13.73;;;9.77;;
54823;SDS011;40724;53.196;5.980;2022-10-31T02:03:44;13.35;;;10.65;;
54823;SDS011;40724;53.196;5.980;2022-10-31T02:06:13;14.30;;;10.50;;
54823;SDS011;40724;53.196;5.980;2022-10-31T02:11:09;13.88;;;10.00;;
54823;SDS011;40724;53.196;5.980;2022-10-31T02:13:36;13.00;;;10.18;;
54823;SDS011;40724;53.196;5.980;2022-10-31T02:16:02;17.00;;;11.40;;
54823;SDS011;40724;53.196;5.980;2022-10-31T02:18:29;12.98;;;9.60;;
54823;SDS011;40724;53.196;5.980;2022-10-31T02:23:48;17.20;;;10.57;;
54823;SDS011;40724;53.196;5.980;2022-10-31T02:29:10;17.20;;;11.13;;
54823;SDS011;40724;53.196;5.980;2022-10-31T02:34:22;14.77;;;11.57;;
54823;SDS011;40724;53.196;5.980;2022-10-31T02:36:54;16.73;;;11.20;;
54823;SDS011;40724;53.196;5.980;2022-10-31T02:39:24;14.98;;;10.95;;
54823;SDS011;40724;53.196;5.980;2022-10-31T02:47:22;17.40;;;11.23;;
54823;SDS011;40724;53.196;5.980;2022-10-31T02:52:21;16.17;;;11.02;;
54823;SDS011;40724;53.196;5.980;2022-10-31T02:54:47;17.05;;;11.48;;
54823;SDS011;40724;53.196;5.980;2022-10-31T02:57:13;14.32;;;10.90;;
54823;SDS011;40724;53.196;5.980;2022-10-31T02:59:44;13.73;;;9.77;;
54823;SDS011;40724;53.196;5.980;2022-10-31T03:05:09;16.65;;;11.95;;
54823;SDS011;40724;53.196;5.980;2022-10-31T03:07:50;16.73;;;11.07;;
54823;SDS011;40724;53.196;5.980;2022-10-31T03:13:20;18.80;;;12.18;;
54823;SDS011;40724;53.196;5.980;2022-10-31T03:15:37;13.83;;;10.50;;
54823;SDS011;40724;53.196;5.980;2022-10-31T03:20:40;13.90;;;10.40;;
54823;SDS011;40724;53.196;5.980;2022-10-31T03:23:09;16.60;;;12.30;;
54823;SDS011;40724;53.196;5.980;2022-10-31T03:25:36;16.33;;;10.90;;
54823;SDS011;40724;53.196;5.980;2022-10-31T03:28:03;16.05;;;11.43;;
54823;SDS011;40724;53.196;5.980;2022-10-31T03:30:30;15.05;;;11.80;;
54823;SDS011;40724;53.196;5.980;2022-10-31T03:32:57;15.63;;;11.52;;
54823;SDS011;40724;53.196;5.980;2022-10-31T03:35:25;21.50;;;12.20;;
54823;SDS011;40724;53.196;5.980;2022-10-31T03:37:53;17.35;;;11.65;;
54823;SDS011;40724;53.196;5.980;2022-10-31T03:40:20;14.63;;;11.93;;
54823;SDS011;40724;53.196;5.980;2022-10-31T03:42:53;16.10;;;11.55;;
54823;SDS011;40724;53.196;5.980;2022-10-31T03:47:46;19.08;;;11.20;;
54823;SDS011;40724;53.196;5.980;2022-10-31T03:50:13;18.30;;;11.95;;
54823;SDS011;40724;53.196;5.980;2022-10-31T03:52:44;20.60;;;12.30;;
54823;SDS011;40724;53.196;5.980;2022-10-31T04:00:08;16.23;;;10.48;;
54823;SDS011;40724;53.196;5.980;2022-10-31T04:02:35;16.42;;;11.48;;
54823;SDS011;40724;53.196;5.980;2022-10-31T04:05:04;15.00;;;10.35;;
54823;SDS011;40724;53.196;5.980;2022-10-31T04:07:36;12.70;;;10.10;;
54823;SDS011;40724;53.196;5.980;2022-10-31T04:10:04;15.73;;;10.90;;
54823;SDS011;40724;53.196;5.980;2022-10-31T04:12:31;14.20;;;10.40;;
54823;SDS011;40724;53.196;5.980;2022-10-31T04:14:59;15.15;;;11.10;;
54823;SDS011;40724;53.196;5.980;2022-10-31T04:17:27;16.25;;;10.65;;
54823;SDS011;40724;53.196;5.980;2022-10-31T04:19:55;13.73;;;10.52;;
54823;SDS011;40724;53.196;5.980;2022-10-31T04:22:21;16.35;;;10.52;;
54823;SDS011;40724;53.196;5.980;2022-10-31T04:24:47;14.70;;;10.13;;
54823;SDS011;40724;53.196;5.980;2022-10-31T04:27:13;14.65;;;10.80;;
54823;SDS011;40724;53.196;5.980;2022-10-31T04:29:39;14.82;;;11.70;;
54823;SDS011;40724;53.196;5.980;2022-10-31T04:32:05;16.85;;;10.40;;
54823;SDS011;40724;53.196;5.980;2022-10-31T04:34:31;15.18;;;9.85;;
54823;SDS011;40724;53.196;5.980;2022-10-31T04:36:57;15.40;;;9.88;;
54823;SDS011;40724;53.196;5.980;2022-10-31T04:39:23;13.82;;;9.60;;
54823;SDS011;40724;53.196;5.980;2022-10-31T04:41:49;16.35;;;11.48;;
54823;SDS011;40724;53.196;5.980;2022-10-31T04:44:15;13.30;;;10.20;;
54823;SDS011;40724;53.196;5.980;2022-10-31T04:46:41;14.27;;;10.65;;
54823;SDS011;40724;53.196;5.980;2022-10-31T04:49:07;17.35;;;10.82;;
54823;SDS011;40724;53.196;5.980;2022-10-31T04:51:33;12.82;;;9.40;;
54823;SDS011;40724;53.196;5.980;2022-10-31T04:54:00;14.65;;;10.40;;
54823;SDS011;40724;53.196;5.980;2022-10-31T04:56:26;15.27;;;11.98;;
54823;SDS011;40724;53.196;5.980;2022-10-31T04:58:52;18.73;;;12.02;;
54823;SDS011;40724;53.196;5.980;2022-10-31T05:01:18;22.73;;;11.95;;
54823;SDS011;40724;53.196;5.980;2022-10-31T05:03:44;16.33;;;11.63;;
54823;SDS011;40724;53.196;5.980;2022-10-31T05:06:10;18.67;;;11.05;;
54823;SDS011;40724;53.196;5.980;2022-10-31T05:08:36;15.55;;;11.48;;
54823;SDS011;40724;53.196;5.980;2022-10-31T05:11:02;15.57;;;11.40;;
54823;SDS011;40724;53.196;5.980;2022-10-31T05:13:28;15.80;;;10.80;;
54823;SDS011;40724;53.196;5.980;2022-10-31T05:15:55;19.40;;;12.35;;
54823;SDS011;40724;53.196;5.980;2022-10-31T05:18:21;16.30;;;10.68;;
54823;SDS011;40724;53.196;5.980;2022-10-31T05:20:47;16.38;;;12.27;;
54823;SDS011;40724;53.196;5.980;2022-10-31T05:23:13;13.93;;;11.30;;
54823;SDS011;40724;53.196;5.980;2022-10-31T05:25:39;17.58;;;11.15;;
54823;SDS011;40724;53.196;5.980;2022-10-31T05:28:06;18.75;;;11.88;;
54823;SDS011;40724;53.196;5.980;2022-10-31T05:30:32;14.85;;;12.65;;
54823;SDS011;40724;53.196;5.980;2022-10-31T05:32:59;17.88;;;11.77;;
54823;SDS011;40724;53.196;5.980;2022-10-31T05:35:26;20.25;;;12.55;;
54823;SDS011;40724;53.196;5.980;2022-10-31T05:37:53;16.48;;;12.30;;
54823;SDS011;40724;53.196;5.980;2022-10-31T05:40:19;17.13;;;12.82;;
54823;SDS011;40724;53.196;5.980;2022-10-31T05:42:46;17.60;;;11.75;;
54823;SDS011;40724;53.196;5.980;2022-10-31T05:45:15;20.77;;;13.65;;
54823;SDS011;40724;53.196;5.980;2022-10-31T05:47:42;17.98;;;12.90;;
54823;SDS011;40724;53.196;5.980;2022-10-31T05:50:08;15.43;;;12.85;;
54823;SDS011;40724;53.196;5.980;2022-10-31T05:52:35;17.92;;;13.00;;
54823;SDS011;40724;53.196;5.980;2022-10-31T05:55:01;15.38;;;11.65;;
54823;SDS011;40724;53.196;5.980;2022-10-31T05:57:28;15.27;;;11.98;;
54823;SDS011;40724;53.196;5.980;2022-10-31T05:59:54;17.65;;;12.63;;
54823;SDS011;40724;53.196;5.980;2022-10-31T06:02:20;16.48;;;11.15;;
54823;SDS011;40724;53.196;5.980;2022-10-31T06:04:47;18.25;;;11.52;;
54823;SDS011;40724;53.196;5.980;2022-10-31T06:07:13;15.85;;;12.50;;
54823;SDS011;40724;53.196;5.980;2022-10-31T06:09:39;14.88;;;11.88;;
54823;SDS011;40724;53.196;5.980;2022-10-31T06:12:05;18.33;;;12.52;;
54823;SDS011;40724;53.196;5.980;2022-10-31T06:14:31;16.60;;;13.30;;
54823;SDS011;40724;53.196;5.980;2022-10-31T06:16:57;14.13;;;11.77;;
54823;SDS011;40724;53.196;5.980;2022-10-31T06:19:23;17.10;;;12.27;;
54823;SDS011;40724;53.196;5.980;2022-10-31T06:21:49;16.30;;;11.32;;
54823;SDS011;40724;53.196;5.980;2022-10-31T06:24:15;17.10;;;11.25;;
54823;SDS011;40724;53.196;5.980;2022-10-31T06:26:41;20.48;;;13.65;;
54823;SDS011;40724;53.196;5.980;2022-10-31T06:29:07;18.50;;;13.40;;
54823;SDS011;40724;53.196;5.980;2022-10-31T06:31:33;16.30;;;12.77;;
54823;SDS011;40724;53.196;5.980;2022-10-31T06:34:00;17.05;;;12.43;;
54823;SDS011;40724;53.196;5.980;2022-10-31T06:36:26;14.48;;;11.75;;
54823;SDS011;40724;53.196;5.980;2022-10-31T06:38:52;14.43;;;11.02;;
54823;SDS011;40724;53.196;5.980;2022-10-31T06:41:18;18.92;;;12.55;;
54823;SDS011;40724;53.196;5.980;2022-10-31T06:43:47;17.42;;;13.48;;
54823;SDS011;40724;53.196;5.980;2022-10-31T06:46:13;13.15;;;11.38;;
54823;SDS011;40724;53.196;5.980;2022-10-31T06:48:42;16.73;;;11.43;;
54823;SDS011;40724;53.196;5.980;2022-10-31T06:51:08;15.52;;;12.38;;
54823;SDS011;40724;53.196;5.980;2022-10-31T06:53:34;18.13;;;13.15;;
54823;SDS011;40724;53.196;5.980;2022-10-31T06:56:01;14.75;;;12.90;;
54823;SDS011;40724;53.196;5.980;2022-10-31T06:58:27;18.90;;;13.63;;
54823;SDS011;40724;53.196;5.980;2022-10-31T07:00:53;14.85;;;12.48;;
54823;SDS011;40724;53.196;5.980;2022-10-31T07:03:19;16.48;;;12.27;;
54823;SDS011;40724;53.196;5.980;2022-10-31T07:05:45;19.42;;;13.13;;
54823;SDS011;40724;53.196;5.980;2022-10-31T07:08:12;19.73;;;13.00;;
54823;SDS011;40724;53.196;5.980;2022-10-31T07:10:39;15.88;;;13.35;;
54823;SDS011;40724;53.196;5.980;2022-10-31T07:13:06;19.75;;;13.23;;
54823;SDS011;40724;53.196;5.980;2022-10-31T07:15:33;16.98;;;13.50;;
54823;SDS011;40724;53.196;5.980;2022-10-31T07:18:00;16.17;;;13.07;;
54823;SDS011;40724;53.196;5.980;2022-10-31T07:20:27;18.27;;;12.85;;
54823;SDS011;40724;53.196;5.980;2022-10-31T07:22:53;18.10;;;12.35;;
54823;SDS011;40724;53.196;5.980;2022-10-31T07:25:19;18.88;;;14.20;;
54823;SDS011;40724;53.196;5.980;2022-10-31T07:27:46;19.42;;;14.95;;
54823;SDS011;40724;53.196;5.980;2022-10-31T07:30:12;21.45;;;13.68;;
54823;SDS011;40724;53.196;5.980;2022-10-31T07:32:39;16.58;;;13.73;;
54823;SDS011;40724;53.196;5.980;2022-10-31T07:35:07;18.80;;;13.00;;
54823;SDS011;40724;53.196;5.980;2022-10-31T07:37:33;22.45;;;13.65;;
54823;SDS011;40724;53.196;5.980;2022-10-31T07:39:59;19.27;;;14.00;;
54823;SDS011;40724;53.196;5.980;2022-10-31T07:42:25;16.92;;;13.05;;
54823;SDS011;40724;53.196;5.980;2022-10-31T07:44:51;21.73;;;13.85;;
54823;SDS011;40724;53.196;5.980;2022-10-31T07:47:17;15.50;;;12.68;;
54823;SDS011;40724;53.196;5.980;2022-10-31T07:49:43;18.48;;;14.25;;
54823;SDS011;40724;53.196;5.980;2022-10-31T07:52:09;19.02;;;13.73;;
54823;SDS011;40724;53.196;5.980;2022-10-31T07:54:36;18.55;;;14.45;;
54823;SDS011;40724;53.196;5.980;2022-10-31T07:57:02;20.13;;;13.90;;
54823;SDS011;40724;53.196;5.980;2022-10-31T07:59:28;21.92;;;13.55;;
54823;SDS011;40724;53.196;5.980;2022-10-31T08:01:54;15.73;;;13.23;;
54823;SDS011;40724;53.196;5.980;2022-10-31T08:04:20;18.13;;;12.85;;
54823;SDS011;40724;53.196;5.980;2022-10-31T08:06:46;19.23;;;14.15;;
54823;SDS011;40724;53.196;5.980;2022-10-31T08:09:13;19.10;;;13.02;;
54823;SDS011;40724;53.196;5.980;2022-10-31T08:11:39;20.67;;;15.20;;
54823;SDS011;40724;53.196;5.980;2022-10-31T08:14:08;18.70;;;13.82;;
54823;SDS011;40724;53.196;5.980;2022-10-31T08:16:34;18.40;;;13.63;;
54823;SDS011;40724;53.196;5.980;2022-10-31T08:19:00;18.42;;;13.57;;
54823;SDS011;40724;53.196;5.980;2022-10-31T08:21:26;15.88;;;12.88;;
54823;SDS011;40724;53.196;5.980;2022-10-31T08:23:52;20.15;;;13.98;;
54823;SDS011;40724;53.196;5.980;2022-10-31T08:26:18;22.10;;;14.00;;
54823;SDS011;40724;53.196;5.980;2022-10-31T08:28:45;20.38;;;13.13;;
54823;SDS011;40724;53.196;5.980;2022-10-31T08:31:11;19.52;;;14.02;;
54823;SDS011;40724;53.196;5.980;2022-10-31T08:33:37;20.73;;;14.52;;
54823;SDS011;40724;53.196;5.980;2022-10-31T08:36:03;19.17;;;14.35;;
54823;SDS011;40724;53.196;5.980;2022-10-31T08:38:29;18.52;;;14.13;;
54823;SDS011;40724;53.196;5.980;2022-10-31T08:40:55;17.50;;;13.93;;
54823;SDS011;40724;53.196;5.980;2022-10-31T08:43:22;15.95;;;13.95;;
54823;SDS011;40724;53.196;5.980;2022-10-31T08:45:48;20.52;;;13.25;;
54823;SDS011;40724;53.196;5.980;2022-10-31T08:48:15;16.50;;;12.25;;
54823;SDS011;40724;53.196;5.980;2022-10-31T08:50:42;19.20;;;13.68;;
54823;SDS011;40724;53.196;5.980;2022-10-31T08:55:38;17.75;;;12.15;;
54823;SDS011;40724;53.196;5.980;2022-10-31T08:58:05;16.90;;;12.35;;
54823;SDS011;40724;53.196;5.980;2022-10-31T09:00:32;17.45;;;12.75;;
54823;SDS011;40724;53.196;5.980;2022-10-31T09:03:04;18.85;;;12.38;;
54823;SDS011;40724;53.196;5.980;2022-10-31T09:05:31;16.75;;;11.60;;
54823;SDS011;40724;53.196;5.980;2022-10-31T09:07:57;20.20;;;11.68;;
54823;SDS011;40724;53.196;5.980;2022-10-31T09:10:24;16.65;;;11.40;;
54823;SDS011;40724;53.196;5.980;2022-10-31T09:13:10;18.58;;;10.82;;
54823;SDS011;40724;53.196;5.980;2022-10-31T09:15:37;16.30;;;10.40;;
54823;SDS011;40724;53.196;5.980;2022-10-31T09:18:04;17.13;;;11.23;;
54823;SDS011;40724;53.196;5.980;2022-10-31T09:20:31;16.05;;;12.25;;
54823;SDS011;40724;53.196;5.980;2022-10-31T09:23:04;15.98;;;10.32;;
54823;SDS011;40724;53.196;5.980;2022-10-31T09:25:32;16.27;;;11.82;;
54823;SDS011;40724;53.196;5.980;2022-10-31T09:27:59;21.60;;;11.30;;
54823;SDS011;40724;53.196;5.980;2022-10-31T09:30:26;14.20;;;9.70;;
54823;SDS011;40724;53.196;5.980;2022-10-31T09:32:56;17.40;;;10.63;;
54823;SDS011;40724;53.196;5.980;2022-10-31T09:35:22;14.70;;;10.95;;
54823;SDS011;40724;53.196;5.980;2022-10-31T09:40:21;15.68;;;10.25;;
54823;SDS011;40724;53.196;5.980;2022-10-31T09:45:26;13.85;;;9.52;;
54823;SDS011;40724;53.196;5.980;2022-10-31T09:50:35;16.67;;;10.93;;
54823;SDS011;40724;53.196;5.980;2022-10-31T09:56:00;12.52;;;9.55;;
54823;SDS011;40724;53.196;5.980;2022-10-31T09:58:30;13.68;;;8.88;;
54823;SDS011;40724;53.196;5.980;2022-10-31T10:01:00;12.68;;;8.82;;
54823;SDS011;40724;53.196;5.980;2022-10-31T10:03:44;15.60;;;9.90;;
54823;SDS011;40724;53.196;5.980;2022-10-31T10:06:16;15.50;;;11.23;;
54823;SDS011;40724;53.196;5.980;2022-10-31T10:08:48;14.88;;;10.50;;
54823;SDS011;40724;53.196;5.980;2022-10-31T10:11:40;14.48;;;10.57;;
54823;SDS011;40724;53.196;5.980;2022-10-31T10:14:28;12.60;;;9.45;;
54823;SDS011;40724;53.196;5.980;2022-10-31T10:17:09;12.90;;;10.02;;
54823;SDS011;40724;53.196;5.980;2022-10-31T10:19:59;15.48;;;10.82;;
54823;SDS011;40724;53.196;5.980;2022-10-31T10:30:12;16.13;;;10.80;;
54823;SDS011;40724;53.196;5.980;2022-10-31T10:32:52;13.95;;;9.40;;
54823;SDS011;40724;53.196;5.980;2022-10-31T10:35:25;12.95;;;9.10;;
54823;SDS011;40724;53.196;5.980;2022-10-31T10:40:39;10.32;;;8.00;;
54823;SDS011;40724;53.196;5.980;2022-10-31T10:43:17;13.63;;;8.82;;
54823;SDS011;40724;53.196;5.980;2022-10-31T10:49:03;9.18;;;7.43;;
54823;SDS011;40724;53.196;5.980;2022-10-31T11:00:21;10.57;;;7.95;;
54823;SDS011;40724;53.196;5.980;2022-10-31T11:02:53;18.73;;;8.50;;
54823;SDS011;40724;53.196;5.980;2022-10-31T11:05:24;14.13;;;8.02;;
54823;SDS011;40724;53.196;5.980;2022-10-31T11:07:50;12.77;;;8.18;;
54823;SDS011;40724;53.196;5.980;2022-10-31T11:10:17;13.32;;;8.77;;
54823;SDS011;40724;53.196;5.980;2022-10-31T11:12:44;12.07;;;9.25;;
54823;SDS011;40724;53.196;5.980;2022-10-31T11:15:21;12.50;;;8.25;;
54823;SDS011;40724;53.196;5.980;2022-10-31T11:17:48;11.50;;;8.20;;
54823;SDS011;40724;53.196;5.980;2022-10-31T11:20:23;18.73;;;8.88;;
54823;SDS011;40724;53.196;5.980;2022-10-31T11:23:15;10.35;;;7.50;;
54823;SDS011;40724;53.196;5.980;2022-10-31T11:28:26;10.45;;;7.35;;
54823;SDS011;40724;53.196;5.980;2022-10-31T11:30:55;11.93;;;8.18;;
54823;SDS011;40724;53.196;5.980;2022-10-31T11:35:54;13.98;;;8.68;;
54823;SDS011;40724;53.196;5.980;2022-10-31T11:38:21;11.63;;;7.60;;
54823;SDS011;40724;53.196;5.980;2022-10-31T11:40:52;9.50;;;7.13;;
54823;SDS011;40724;53.196;5.980;2022-10-31T11:43:19;11.43;;;7.35;;
54823;SDS011;40724;53.196;5.980;2022-10-31T11:45:45;11.80;;;7.47;;
54823;SDS011;40724;53.196;5.980;2022-10-31T11:48:15;12.02;;;7.85;;
54823;SDS011;40724;53.196;5.980;2022-10-31T11:50:42;11.20;;;7.43;;
54823;SDS011;40724;53.196;5.980;2022-10-31T11:53:21;12.90;;;7.30;;
54823;SDS011;40724;53.196;5.980;2022-10-31T11:55:50;11.85;;;6.78;;
54823;SDS011;40724;53.196;5.980;2022-10-31T11:58:25;9.82;;;6.68;;
54823;SDS011;40724;53.196;5.980;2022-10-31T12:00:53;9.88;;;6.97;;
54823;SDS011;40724;53.196;5.980;2022-10-31T12:05:53;12.15;;;6.95;;
54823;SDS011;40724;53.196;5.980;2022-10-31T12:08:21;16.00;;;8.75;;
54823;SDS011;40724;53.196;5.980;2022-10-31T12:15:45;13.30;;;8.35;;
54823;SDS011;40724;53.196;5.980;2022-10-31T12:18:32;16.33;;;9.23;;
54823;SDS011;40724;53.196;5.980;2022-10-31T12:31:33;15.63;;;10.68;;
54823;SDS011;40724;53.196;5.980;2022-10-31T12:39:30;10.80;;;7.53;;
54823;SDS011;40724;53.196;5.980;2022-10-31T12:42:08;9.35;;;6.78;;
54823;SDS011;40724;53.196;5.980;2022-10-31T12:52:25;16.38;;;8.65;;
54823;SDS011;40724;53.196;5.980;2022-10-31T12:54:56;10.25;;;7.10;;
54823;SDS011;40724;53.196;5.980;2022-10-31T12:57:29;9.23;;;6.03;;
54823;SDS011;40724;53.196;5.980;2022-10-31T13:00:11;11.52;;;6.50;;
54823;SDS011;40724;53.196;5.980;2022-10-31T13:10:42;13.35;;;6.40;;
54823;SDS011;40724;53.196;5.980;2022-10-31T13:13:25;8.27;;;5.63;;
54823;SDS011;40724;53.196;5.980;2022-10-31T13:16:16;13.27;;;5.68;;
54823;SDS011;40724;53.196;5.980;2022-10-31T13:18:49;11.25;;;5.70;;
54823;SDS011;40724;53.196;5.980;2022-10-31T13:24:40;11.10;;;5.65;;
54823;SDS011;40724;53.196;5.980;2022-10-31T13:32:22;9.35;;;5.78;;
54823;SDS011;40724;53.196;5.980;2022-10-31T13:34:52;9.10;;;5.13;;
54823;SDS011;40724;53.196;5.980;2022-10-31T13:37:25;10.35;;;5.28;;
54823;SDS011;40724;53.196;5.980;2022-10-31T13:42:40;11.57;;;5.60;;
54823;SDS011;40724;53.196;5.980;2022-10-31T13:45:20;14.68;;;6.47;;
54823;SDS011;40724;53.196;5.980;2022-10-31T13:48:00;9.10;;;5.28;;
54823;SDS011;40724;53.196;5.980;2022-10-31T13:50:55;8.77;;;4.30;;
54823;SDS011;40724;53.196;5.980;2022-10-31T13:53:36;8.63;;;4.97;;
54823;SDS011;40724;53.196;5.980;2022-10-31T13:58:33;9.07;;;5.47;;
54823;SDS011;40724;53.196;5.980;2022-10-31T14:03:44;6.93;;;5.10;;
54823;SDS011;40724;53.196;5.980;2022-10-31T14:06:12;7.57;;;4.53;;
54823;SDS011;40724;53.196;5.980;2022-10-31T14:08:47;12.70;;;6.03;;
54823;SDS011;40724;53.196;5.980;2022-10-31T14:11:21;9.45;;;5.35;;
54823;SDS011;40724;53.196;5.980;2022-10-31T14:13:51;8.40;;;4.72;;
54823;SDS011;40724;53.196;5.980;2022-10-31T14:16:19;7.53;;;4.47;;
54823;SDS011;40724;53.196;5.980;2022-10-31T14:18:50;10.52;;;4.55;;
54823;SDS011;40724;53.196;5.980;2022-10-31T14:24:12;13.20;;;4.20;;
54823;SDS011;40724;53.196;5.980;2022-10-31T14:29:27;8.45;;;4.45;;
54823;SDS011;40724;53.196;5.980;2022-10-31T14:31:55;7.32;;;4.20;;
54823;SDS011;40724;53.196;5.980;2022-10-31T14:51:00;7.10;;;3.75;;
54823;SDS011;40724;53.196;5.980;2022-10-31T14:53:53;7.75;;;3.88;;
54823;SDS011;40724;53.196;5.980;2022-10-31T14:56:11;8.82;;;3.90;;
54823;SDS011;40724;53.196;5.980;2022-10-31T15:01:05;6.95;;;3.83;;
54823;SDS011;40724;53.196;5.980;2022-10-31T15:03:39;6.40;;;3.88;;
54823;SDS011;40724;53.196;5.980;2022-10-31T15:06:13;8.80;;;3.67;;
54823;SDS011;40724;53.196;5.980;2022-10-31T15:16:10;16.33;;;3.58;;
54823;SDS011;40724;53.196;5.980;2022-10-31T15:18:37;8.35;;;3.22;;
54823;SDS011;40724;53.196;5.980;2022-10-31T15:21:05;5.88;;;3.00;;
54823;SDS011;40724;53.196;5.980;2022-10-31T15:23:32;7.03;;;3.25;;
54823;SDS011;40724;53.196;5.980;2022-10-31T15:26:02;10.75;;;4.07;;
54823;SDS011;40724;53.196;5.980;2022-10-31T15:28:29;6.25;;;3.55;;
54823;SDS011;40724;53.196;5.980;2022-10-31T15:31:00;10.52;;;3.67;;
54823;SDS011;40724;53.196;5.980;2022-10-31T15:33:30;11.25;;;3.65;;
54823;SDS011;40724;53.196;5.980;2022-10-31T15:35:58;7.03;;;3.38;;
54823;SDS011;40724;53.196;5.980;2022-10-31T15:38:24;8.00;;;3.08;;
54823;SDS011;40724;53.196;5.980;2022-10-31T15:40:52;9.80;;;3.92;;
54823;SDS011;40724;53.196;5.980;2022-10-31T15:43:19;7.18;;;3.30;;
54823;SDS011;40724;53.196;5.980;2022-10-31T15:45:45;9.68;;;3.92;;
54823;SDS011;40724;53.196;5.980;2022-10-31T15:48:17;6.40;;;3.50;;
54823;SDS011;40724;53.196;5.980;2022-10-31T15:50:48;11.95;;;3.58;;
54823;SDS011;40724;53.196;5.980;2022-10-31T15:53:19;6.60;;;3.73;;
54823;SDS011;40724;53.196;5.980;2022-10-31T15:56:00;8.23;;;4.35;;
54823;SDS011;40724;53.196;5.980;2022-10-31T15:58:26;8.05;;;4.53;;
54823;SDS011;40724;53.196;5.980;2022-10-31T16:01:36;14.65;;;5.13;;
54823;SDS011;40724;53.196;5.980;2022-10-31T16:03:43;7.38;;;4.40;;
54823;SDS011;40724;53.196;5.980;2022-10-31T16:06:19;7.85;;;3.92;;
54823;SDS011;40724;53.196;5.980;2022-10-31T16:08:46;10.57;;;4.07;;
54823;SDS011;40724;53.196;5.980;2022-10-31T16:16:21;9.07;;;4.78;;
54823;SDS011;40724;53.196;5.980;2022-10-31T16:18:48;7.28;;;4.72;;
54823;SDS011;40724;53.196;5.980;2022-10-31T16:21:15;13.98;;;5.13;;
54823;SDS011;40724;53.196;5.980;2022-10-31T16:23:48;10.32;;;6.22;;
54823;SDS011;40724;53.196;5.980;2022-10-31T16:26:17;9.80;;;4.80;;
54823;SDS011;40724;53.196;5.980;2022-10-31T16:28:50;8.55;;;5.38;;
54823;SDS011;40724;53.196;5.980;2022-10-31T16:31:24;12.15;;;5.60;;
54823;SDS011;40724;53.196;5.980;2022-10-31T16:33:51;10.35;;;5.35;;
54823;SDS011;40724;53.196;5.980;2022-10-31T16:38:53;9.35;;;5.75;;
54823;SDS011;40724;53.196;5.980;2022-10-31T16:41:20;9.20;;;5.45;;
54823;SDS011;40724;53.196;5.980;2022-10-31T16:43:46;10.55;;;6.35;;
54823;SDS011;40724;53.196;5.980;2022-10-31T16:46:14;12.27;;;6.35;;
54823;SDS011;40724;53.196;5.980;2022-10-31T16:48:40;15.93;;;7.45;;
54823;SDS011;40724;53.196;5.980;2022-10-31T16:51:07;9.20;;;5.80;;
54823;SDS011;40724;53.196;5.980;2022-10-31T16:53:33;14.57;;;7.15;;
54823;SDS011;40724;53.196;5.980;2022-10-31T16:56:01;12.93;;;7.47;;
54823;SDS011;40724;53.196;5.980;2022-10-31T16:58:28;21.98;;;7.03;;
54823;SDS011;40724;53.196;5.980;2022-10-31T17:00:55;12.60;;;7.18;;
54823;SDS011;40724;53.196;5.980;2022-10-31T17:03:21;12.05;;;7.82;;
54823;SDS011;40724;53.196;5.980;2022-10-31T17:05:47;11.35;;;7.25;;
54823;SDS011;40724;53.196;5.980;2022-10-31T17:08:13;14.55;;;6.88;;
54823;SDS011;40724;53.196;5.980;2022-10-31T17:10:40;11.43;;;6.88;;
54823;SDS011;40724;53.196;5.980;2022-10-31T17:13:08;12.88;;;6.60;;
54823;SDS011;40724;53.196;5.980;2022-10-31T17:15:41;13.15;;;7.13;;
54823;SDS011;40724;53.196;5.980;2022-10-31T17:20:34;11.85;;;6.78;;
54823;SDS011;40724;53.196;5.980;2022-10-31T17:23:00;13.88;;;7.13;;
54823;SDS011;40724;53.196;5.980;2022-10-31T17:25:27;13.27;;;8.85;;
54823;SDS011;40724;53.196;5.980;2022-10-31T17:27:54;12.25;;;7.30;;
54823;SDS011;40724;53.196;5.980;2022-10-31T17:30:20;12.82;;;6.72;;
54823;SDS011;40724;53.196;5.980;2022-10-31T17:32:47;10.38;;;7.35;;